sensor_id;sensor_type;location;lat;lon;timestamp;temperature;humidity
2647;DHT22;1333;50.958;6.770;2024-01-15T00:01:16;1.50;99.90
2647;DHT22;1333;50.958;6.770;2024-01-15T00:03:42;1.50;99.90
2647;DHT22;1333;50.958;6.770;2024-01-15T00:06:07;1.50;99.90
2647;DHT22;1333;50.958;6.770;2024-01-15T00:08:33;1.50;99.90
2647;DHT22;1333;50.958;6.770;2024-01-15T00:10:58;1.50;99.90
2647;DHT22;1333;50.958;6.770;2024-01-15T00:13:24;1.50;99.90
2647;DHT22;1333;50.958;6.770;2024-01-15T00:15:50;1.50;99.90
2647;DHT22;1333;50.958;6.770;2024-01-15T00:18:15;1.40;99.90
2647;DHT22;1333;50.958;6.770;2024-01-15T00:20:41;1.50;99.90
2647;DHT22;1333;50.958;6.770;2024-01-15T00:23:06;1.50;99.90
2647;DHT22;1333;50.958;6.770;2024-01-15T00:25:32;1.50;99.90
2647;DHT22;1333;50.958;6.770;2024-01-15T00:27:57;1.60;99.90
2647;DHT22;1333;50.958;6.770;2024-01-15T00:30:23;1.60;99.90
2647;DHT22;1333;50.958;6.770;2024-01-15T00:32:48;1.60;99.90
2647;DHT22;1333;50.958;6.770;2024-01-15T00:35:14;1.60;99.90
2647;DHT22;1333;50.958;6.770;2024-01-15T00:37:40;1.50;99.90
2647;DHT22;1333;50.958;6.770;2024-01-15T00:40:06;1.50;99.90
2647;DHT22;1333;50.958;6.770;2024-01-15T00:42:33;1.50;99.90
2647;DHT22;1333;50.958;6.770;2024-01-15T00:44:59;1.60;99.90
2647;DHT22;1333;50.958;6.770;2024-01-15T00:47:25;1.60;99.90
2647;DHT22;1333;50.958;6.770;2024-01-15T00:49:50;1.70;99.90
2647;DHT22;1333;50.958;6.770;2024-01-15T00:52:16;1.70;99.90
2647;DHT22;1333;50.958;6.770;2024-01-15T00:54:41;1.70;99.90
2647;DHT22;1333;50.958;6.770;2024-01-15T00:57:07;1.70;99.90
2647;DHT22;1333;50.958;6.770;2024-01-15T00:59:32;1.70;99.90
2647;DHT22;1333;50.958;6.770;2024-01-15T01:01:58;1.70;99.90
2647;DHT22;1333;50.958;6.770;2024-01-15T01:04:23;1.70;99.90
2647;DHT22;1333;50.958;6.770;2024-01-15T01:06:49;1.80;99.90
2647;DHT22;1333;50.958;6.770;2024-01-15T01:09:14;1.90;99.90
2647;DHT22;1333;50.958;6.770;2024-01-15T01:11:40;1.80;99.90
2647;DHT22;1333;50.958;6.770;2024-01-15T01:14:06;1.90;99.90
2647;DHT22;1333;50.958;6.770;2024-01-15T01:16:31;2.00;99.90
2647;DHT22;1333;50.958;6.770;2024-01-15T01:19:04;1.90;99.90
2647;DHT22;1333;50.958;6.770;2024-01-15T01:21:30;1.80;99.90
2647;DHT22;1333;50.958;6.770;2024-01-15T01:23:55;1.70;99.90
2647;DHT22;1333;50.958;6.770;2024-01-15T01:26:21;1.60;99.90
2647;DHT22;1333;50.958;6.770;2024-01-15T01:28:46;1.70;99.90
2647;DHT22;1333;50.958;6.770;2024-01-15T01:31:12;1.70;99.90
2647;DHT22;1333;50.958;6.770;2024-01-15T01:33:39;1.70;99.90
2647;DHT22;1333;50.958;6.770;2024-01-15T01:36:09;1.70;99.90
2647;DHT22;1333;50.958;6.770;2024-01-15T01:38:35;1.70;99.90
2647;DHT22;1333;50.958;6.770;2024-01-15T01:41:01;1.60;99.90
2647;DHT22;1333;50.958;6.770;2024-01-15T01:43:27;1.60;99.90
2647;DHT22;1333;50.958;6.770;2024-01-15T01:45:54;1.60;99.90
2647;DHT22;1333;50.958;6.770;2024-01-15T01:48:20;1.60;99.90
2647;DHT22;1333;50.958;6.770;2024-01-15T01:50:46;1.60;99.90
2647;DHT22;1333;50.958;6.770;2024-01-15T01:53:11;1.60;99.90
2647;DHT22;1333;50.958;6.770;2024-01-15T01:55:38;1.70;99.90
2647;DHT22;1333;50.958;6.770;2024-01-15T01:58:04;1.60;99.90
2647;DHT22;1333;50.958;6.770;2024-01-15T02:00:31;1.70;99.90
2647;DHT22;1333;50.958;6.770;2024-01-15T02:02:57;1.60;99.90
2647;DHT22;1333;50.958;6.770;2024-01-15T02:05:23;1.60;99.90
2647;DHT22;1333;50.958;6.770;2024-01-15T02:07:48;1.60;99.90
2647;DHT22;1333;50.958;6.770;2024-01-15T02:10:14;1.60;99.90
2647;DHT22;1333;50.958;6.770;2024-01-15T02:12:40;1.60;99.90
2647;DHT22;1333;50.958;6.770;2024-01-15T02:15:05;1.60;99.90
2647;DHT22;1333;50.958;6.770;2024-01-15T02:17:31;1.60;99.90
2647;DHT22;1333;50.958;6.770;2024-01-15T02:19:57;1.60;99.90
2647;DHT22;1333;50.958;6.770;2024-01-15T02:22:22;1.70;99.90
2647;DHT22;1333;50.958;6.770;2024-01-15T02:24:48;1.60;99.90
2647;DHT22;1333;50.958;6.770;2024-01-15T02:27:13;1.70;99.90
2647;DHT22;1333;50.958;6.770;2024-01-15T02:29:39;1.70;99.90
2647;DHT22;1333;50.958;6.770;2024-01-15T02:32:06;1.80;99.90
2647;DHT22;1333;50.958;6.770;2024-01-15T02:34:32;1.80;99.90
2647;DHT22;1333;50.958;6.770;2024-01-15T02:36:58;1.80;99.90
2647;DHT22;1333;50.958;6.770;2024-01-15T02:39:23;1.80;99.90
2647;DHT22;1333;50.958;6.770;2024-01-15T02:41:50;1.70;99.90
2647;DHT22;1333;50.958;6.770;2024-01-15T02:44:15;1.70;99.90
2647;DHT22;1333;50.958;6.770;2024-01-15T02:46:40;1.70;99.90
2647;DHT22;1333;50.958;6.770;2024-01-15T02:49:06;1.70;99.90
2647;DHT22;1333;50.958;6.770;2024-01-15T02:51:32;1.70;99.90
2647;DHT22;1333;50.958;6.770;2024-01-15T02:53:57;1.60;99.90
2647;DHT22;1333;50.958;6.770;2024-01-15T02:56:23;1.70;99.90
2647;DHT22;1333;50.958;6.770;2024-01-15T02:58:48;1.60;99.90
2647;DHT22;1333;50.958;6.770;2024-01-15T03:01:14;1.70;99.90
2647;DHT22;1333;50.958;6.770;2024-01-15T03:03:40;1.60;99.90
2647;DHT22;1333;50.958;6.770;2024-01-15T03:06:05;1.50;99.90
2647;DHT22;1333;50.958;6.770;2024-01-15T03:08:31;1.40;99.90
2647;DHT22;1333;50.958;6.770;2024-01-15T03:10:56;1.40;99.90
2647;DHT22;1333;50.958;6.770;2024-01-15T03:13:22;1.40;99.90
2647;DHT22;1333;50.958;6.770;2024-01-15T03:15:47;1.40;99.90
2647;DHT22;1333;50.958;6.770;2024-01-15T03:18:13;1.50;99.90
2647;DHT22;1333;50.958;6.770;2024-01-15T03:20:39;1.40;99.90
2647;DHT22;1333;50.958;6.770;2024-01-15T03:23:04;1.40;99.90
2647;DHT22;1333;50.958;6.770;2024-01-15T03:25:30;1.50;99.90
2647;DHT22;1333;50.958;6.770;2024-01-15T03:27:55;1.50;99.90
2647;DHT22;1333;50.958;6.770;2024-01-15T03:30:21;1.50;99.90
2647;DHT22;1333;50.958;6.770;2024-01-15T03:32:46;1.50;99.90
2647;DHT22;1333;50.958;6.770;2024-01-15T03:35:12;1.60;99.90
2647;DHT22;1333;50.958;6.770;2024-01-15T03:37:38;1.50;99.90
2647;DHT22;1333;50.958;6.770;2024-01-15T03:40:04;1.60;99.90
2647;DHT22;1333;50.958;6.770;2024-01-15T03:42:29;1.70;99.90
2647;DHT22;1333;50.958;6.770;2024-01-15T03:44:55;1.70;99.90
2647;DHT22;1333;50.958;6.770;2024-01-15T03:47:21;1.70;99.90
2647;DHT22;1333;50.958;6.770;2024-01-15T03:49:46;1.70;99.90
2647;DHT22;1333;50.958;6.770;2024-01-15T03:52:12;1.70;99.90
2647;DHT22;1333;50.958;6.770;2024-01-15T03:54:37;1.60;99.90
2647;DHT22;1333;50.958;6.770;2024-01-15T03:57:03;1.70;99.90
2647;DHT22;1333;50.958;6.770;2024-01-15T03:59:28;1.70;99.90
2647;DHT22;1333;50.958;6.770;2024-01-15T04:01:54;1.70;99.90
2647;DHT22;1333;50.958;6.770;2024-01-15T04:04:20;1.60;99.90
2647;DHT22;1333;50.958;6.770;2024-01-15T04:06:45;1.60;99.90
2647;DHT22;1333;50.958;6.770;2024-01-15T04:09:12;1.60;99.90
2647;DHT22;1333;50.958;6.770;2024-01-15T04:11:38;1.50;99.90
2647;DHT22;1333;50.958;6.770;2024-01-15T04:14:04;1.50;99.90
2647;DHT22;1333;50.958;6.770;2024-01-15T04:16:29;1.50;99.90
2647;DHT22;1333;50.958;6.770;2024-01-15T04:18:55;1.50;99.90
2647;DHT22;1333;50.958;6.770;2024-01-15T04:21:20;1.50;99.90
2647;DHT22;1333;50.958;6.770;2024-01-15T04:23:46;1.50;99.90
2647;DHT22;1333;50.958;6.770;2024-01-15T04:26:11;1.50;99.90
2647;DHT22;1333;50.958;6.770;2024-01-15T04:28:37;1.40;99.90
2647;DHT22;1333;50.958;6.770;2024-01-15T04:31:03;1.40;99.90
2647;DHT22;1333;50.958;6.770;2024-01-15T04:33:28;1.40;99.90
2647;DHT22;1333;50.958;6.770;2024-01-15T04:35:54;1.40;99.90
2647;DHT22;1333;50.958;6.770;2024-01-15T04:38:19;1.30;99.90
2647;DHT22;1333;50.958;6.770;2024-01-15T04:40:45;1.40;99.90
2647;DHT22;1333;50.958;6.770;2024-01-15T04:43:10;1.40;99.90
2647;DHT22;1333;50.958;6.770;2024-01-15T04:45:36;1.40;99.90
2647;DHT22;1333;50.958;6.770;2024-01-15T04:48:01;1.40;99.90
2647;DHT22;1333;50.958;6.770;2024-01-15T04:50:27;1.50;99.90
2647;DHT22;1333;50.958;6.770;2024-01-15T04:52:52;1.50;99.90
2647;DHT22;1333;50.958;6.770;2024-01-15T04:55:18;1.60;99.90
2647;DHT22;1333;50.958;6.770;2024-01-15T04:57:43;1.70;99.90
2647;DHT22;1333;50.958;6.770;2024-01-15T05:00:09;1.70;99.90
2647;DHT22;1333;50.958;6.770;2024-01-15T05:02:35;1.70;99.90
2647;DHT22;1333;50.958;6.770;2024-01-15T05:05:01;1.70;99.90
2647;DHT22;1333;50.958;6.770;2024-01-15T05:07:26;1.60;99.90
2647;DHT22;1333;50.958;6.770;2024-01-15T05:09:52;1.60;99.90
2647;DHT22;1333;50.958;6.770;2024-01-15T05:12:17;1.60;99.90
2647;DHT22;1333;50.958;6.770;2024-01-15T05:14:43;1.60;99.90
2647;DHT22;1333;50.958;6.770;2024-01-15T05:17:08;1.60;99.90
2647;DHT22;1333;50.958;6.770;2024-01-15T05:19:34;1.50;99.90
2647;DHT22;1333;50.958;6.770;2024-01-15T05:21:59;1.50;99.90
2647;DHT22;1333;50.958;6.770;2024-01-15T05:24:25;1.70;99.90
2647;DHT22;1333;50.958;6.770;2024-01-15T05:26:51;1.70;99.90
2647;DHT22;1333;50.958;6.770;2024-01-15T05:29:17;1.70;99.90
2647;DHT22;1333;50.958;6.770;2024-01-15T05:31:43;1.60;99.90
2647;DHT22;1333;50.958;6.770;2024-01-15T05:34:09;1.60;99.90
2647;DHT22;1333;50.958;6.770;2024-01-15T05:36:34;1.70;99.90
2647;DHT22;1333;50.958;6.770;2024-01-15T05:39:00;1.60;99.90
2647;DHT22;1333;50.958;6.770;2024-01-15T05:41:25;1.70;99.90
2647;DHT22;1333;50.958;6.770;2024-01-15T05:43:52;1.70;99.90
2647;DHT22;1333;50.958;6.770;2024-01-15T05:46:17;1.80;99.90
2647;DHT22;1333;50.958;6.770;2024-01-15T05:48:43;1.70;99.90
2647;DHT22;1333;50.958;6.770;2024-01-15T05:51:08;1.80;99.90
2647;DHT22;1333;50.958;6.770;2024-01-15T05:53:34;1.90;99.90
2647;DHT22;1333;50.958;6.770;2024-01-15T05:55:59;1.90;99.90
2647;DHT22;1333;50.958;6.770;2024-01-15T05:58:26;1.90;99.90
2647;DHT22;1333;50.958;6.770;2024-01-15T06:00:52;1.80;99.90
2647;DHT22;1333;50.958;6.770;2024-01-15T06:03:17;1.80;99.90
2647;DHT22;1333;50.958;6.770;2024-01-15T06:05:43;1.90;99.90
2647;DHT22;1333;50.958;6.770;2024-01-15T06:08:09;1.90;99.90
2647;DHT22;1333;50.958;6.770;2024-01-15T06:10:34;1.90;99.90
2647;DHT22;1333;50.958;6.770;2024-01-15T06:13:00;2.00;99.90
2647;DHT22;1333;50.958;6.770;2024-01-15T06:15:25;1.90;99.90
2647;DHT22;1333;50.958;6.770;2024-01-15T06:17:51;1.90;99.90
2647;DHT22;1333;50.958;6.770;2024-01-15T06:20:16;1.90;99.90
2647;DHT22;1333;50.958;6.770;2024-01-15T06:22:42;1.90;99.90
2647;DHT22;1333;50.958;6.770;2024-01-15T06:25:08;1.90;99.90
2647;DHT22;1333;50.958;6.770;2024-01-15T06:27:33;1.90;99.90
2647;DHT22;1333;50.958;6.770;2024-01-15T06:29:59;2.00;99.90
2647;DHT22;1333;50.958;6.770;2024-01-15T06:32:25;2.00;99.90
2647;DHT22;1333;50.958;6.770;2024-01-15T06:34:50;2.00;99.90
2647;DHT22;1333;50.958;6.770;2024-01-15T06:37:16;2.00;99.90
2647;DHT22;1333;50.958;6.770;2024-01-15T06:39:41;1.90;99.90
2647;DHT22;1333;50.958;6.770;2024-01-15T06:42:07;2.00;99.90
2647;DHT22;1333;50.958;6.770;2024-01-15T06:44:32;2.00;99.90
2647;DHT22;1333;50.958;6.770;2024-01-15T06:46:58;1.90;99.90
2647;DHT22;1333;50.958;6.770;2024-01-15T06:49:28;1.90;99.90
2647;DHT22;1333;50.958;6.770;2024-01-15T06:51:54;1.90;99.90
2647;DHT22;1333;50.958;6.770;2024-01-15T06:54:19;1.90;99.90
2647;DHT22;1333;50.958;6.770;2024-01-15T06:56:45;1.80;99.90
2647;DHT22;1333;50.958;6.770;2024-01-15T06:59:11;1.90;99.90
2647;DHT22;1333;50.958;6.770;2024-01-15T07:01:36;1.90;99.90
2647;DHT22;1333;50.958;6.770;2024-01-15T07:04:02;1.90;99.90
2647;DHT22;1333;50.958;6.770;2024-01-15T07:06:28;1.90;99.90
2647;DHT22;1333;50.958;6.770;2024-01-15T07:08:56;1.90;99.90
2647;DHT22;1333;50.958;6.770;2024-01-15T07:11:21;1.90;99.90
2647;DHT22;1333;50.958;6.770;2024-01-15T07:13:47;1.90;99.90
2647;DHT22;1333;50.958;6.770;2024-01-15T07:16:12;1.90;99.90
2647;DHT22;1333;50.958;6.770;2024-01-15T07:18:38;1.90;99.90
2647;DHT22;1333;50.958;6.770;2024-01-15T07:21:03;1.90;99.90
2647;DHT22;1333;50.958;6.770;2024-01-15T07:23:31;2.00;99.90
2647;DHT22;1333;50.958;6.770;2024-01-15T07:25:57;2.00;99.90
2647;DHT22;1333;50.958;6.770;2024-01-15T07:28:22;2.10;99.90
2647;DHT22;1333;50.958;6.770;2024-01-15T07:30:48;2.10;99.90
2647;DHT22;1333;50.958;6.770;2024-01-15T07:33:13;2.00;99.90
2647;DHT22;1333;50.958;6.770;2024-01-15T07:35:39;2.00;99.90
2647;DHT22;1333;50.958;6.770;2024-01-15T07:38:05;1.90;99.90
2647;DHT22;1333;50.958;6.770;2024-01-15T07:40:30;2.00;99.90
2647;DHT22;1333;50.958;6.770;2024-01-15T07:42:56;2.00;99.90
2647;DHT22;1333;50.958;6.770;2024-01-15T07:45:21;2.00;99.90
2647;DHT22;1333;50.958;6.770;2024-01-15T07:47:47;2.10;99.90
2647;DHT22;1333;50.958;6.770;2024-01-15T07:50:12;2.10;99.90
2647;DHT22;1333;50.958;6.770;2024-01-15T07:52:40;2.20;99.90
2647;DHT22;1333;50.958;6.770;2024-01-15T07:55:05;2.20;99.90
2647;DHT22;1333;50.958;6.770;2024-01-15T07:57:31;2.20;99.90
2647;DHT22;1333;50.958;6.770;2024-01-15T07:59:57;2.20;99.90
2647;DHT22;1333;50.958;6.770;2024-01-15T08:02:22;2.30;99.90
2647;DHT22;1333;50.958;6.770;2024-01-15T08:04:48;2.30;99.90
2647;DHT22;1333;50.958;6.770;2024-01-15T08:07:13;2.40;99.90
2647;DHT22;1333;50.958;6.770;2024-01-15T08:09:39;2.50;99.90
2647;DHT22;1333;50.958;6.770;2024-01-15T08:12:05;2.50;99.90
2647;DHT22;1333;50.958;6.770;2024-01-15T08:14:31;2.60;99.90
2647;DHT22;1333;50.958;6.770;2024-01-15T08:16:57;2.60;99.90
2647;DHT22;1333;50.958;6.770;2024-01-15T08:19:22;2.70;99.90
2647;DHT22;1333;50.958;6.770;2024-01-15T08:21:48;2.60;99.90
2647;DHT22;1333;50.958;6.770;2024-01-15T08:24:15;2.70;99.90
2647;DHT22;1333;50.958;6.770;2024-01-15T08:26:40;2.80;99.90
2647;DHT22;1333;50.958;6.770;2024-01-15T08:29:06;2.90;99.90
2647;DHT22;1333;50.958;6.770;2024-01-15T08:31:31;3.00;99.90
2647;DHT22;1333;50.958;6.770;2024-01-15T08:33:57;3.00;99.90
2647;DHT22;1333;50.958;6.770;2024-01-15T08:36:23;3.00;99.90
2647;DHT22;1333;50.958;6.770;2024-01-15T08:38:49;3.10;99.90
2647;DHT22;1333;50.958;6.770;2024-01-15T08:41:15;3.00;99.90
2647;DHT22;1333;50.958;6.770;2024-01-15T08:43:40;2.90;99.90
2647;DHT22;1333;50.958;6.770;2024-01-15T08:46:06;2.90;99.90
2647;DHT22;1333;50.958;6.770;2024-01-15T08:48:32;2.90;99.90
2647;DHT22;1333;50.958;6.770;2024-01-15T08:50:57;2.90;99.90
2647;DHT22;1333;50.958;6.770;2024-01-15T08:53:23;2.90;99.90
2647;DHT22;1333;50.958;6.770;2024-01-15T08:55:49;2.80;99.90
2647;DHT22;1333;50.958;6.770;2024-01-15T08:58:14;2.80;99.90
2647;DHT22;1333;50.958;6.770;2024-01-15T09:00:40;2.90;99.90
2647;DHT22;1333;50.958;6.770;2024-01-15T09:03:06;2.90;99.90
2647;DHT22;1333;50.958;6.770;2024-01-15T09:05:31;3.00;99.90
2647;DHT22;1333;50.958;6.770;2024-01-15T09:07:57;3.00;99.90
2647;DHT22;1333;50.958;6.770;2024-01-15T09:10:22;3.10;99.90
2647;DHT22;1333;50.958;6.770;2024-01-15T09:12:48;3.10;99.90
2647;DHT22;1333;50.958;6.770;2024-01-15T09:15:16;2.90;99.90
2647;DHT22;1333;50.958;6.770;2024-01-15T09:17:42;2.90;99.90
2647;DHT22;1333;50.958;6.770;2024-01-15T09:20:08;2.90;99.90
2647;DHT22;1333;50.958;6.770;2024-01-15T09:22:35;3.00;99.90
2647;DHT22;1333;50.958;6.770;2024-01-15T09:25:01;3.00;99.90
2647;DHT22;1333;50.958;6.770;2024-01-15T09:27:26;3.00;99.90
2647;DHT22;1333;50.958;6.770;2024-01-15T09:29:55;3.00;99.90
2647;DHT22;1333;50.958;6.770;2024-01-15T09:32:20;3.00;99.90
2647;DHT22;1333;50.958;6.770;2024-01-15T09:34:46;2.90;99.90
2647;DHT22;1333;50.958;6.770;2024-01-15T09:37:13;2.80;99.90
2647;DHT22;1333;50.958;6.770;2024-01-15T09:39:39;2.80;99.90
2647;DHT22;1333;50.958;6.770;2024-01-15T09:42:05;2.80;99.90
2647;DHT22;1333;50.958;6.770;2024-01-15T09:44:31;2.80;99.90
2647;DHT22;1333;50.958;6.770;2024-01-15T09:46:57;2.80;99.90
2647;DHT22;1333;50.958;6.770;2024-01-15T09:49:23;2.70;99.90
2647;DHT22;1333;50.958;6.770;2024-01-15T09:51:49;2.70;99.90
2647;DHT22;1333;50.958;6.770;2024-01-15T09:54:15;2.70;99.90
2647;DHT22;1333;50.958;6.770;2024-01-15T09:56:45;2.80;99.90
2647;DHT22;1333;50.958;6.770;2024-01-15T09:59:14;2.80;99.90
2647;DHT22;1333;50.958;6.770;2024-01-15T10:01:43;2.90;99.90
2647;DHT22;1333;50.958;6.770;2024-01-15T10:04:10;3.00;99.90
2647;DHT22;1333;50.958;6.770;2024-01-15T10:06:36;3.00;99.90
2647;DHT22;1333;50.958;6.770;2024-01-15T10:09:03;3.20;99.90
2647;DHT22;1333;50.958;6.770;2024-01-15T10:11:30;3.30;99.90
2647;DHT22;1333;50.958;6.770;2024-01-15T10:13:57;3.30;99.90
2647;DHT22;1333;50.958;6.770;2024-01-15T10:16:23;3.30;99.90
2647;DHT22;1333;50.958;6.770;2024-01-15T10:18:49;3.30;99.90
2647;DHT22;1333;50.958;6.770;2024-01-15T10:21:15;3.40;99.90
2647;DHT22;1333;50.958;6.770;2024-01-15T10:23:41;3.40;99.90
2647;DHT22;1333;50.958;6.770;2024-01-15T10:26:07;3.40;99.90
2647;DHT22;1333;50.958;6.770;2024-01-15T10:28:33;3.40;99.90
2647;DHT22;1333;50.958;6.770;2024-01-15T10:31:00;3.50;99.90
2647;DHT22;1333;50.958;6.770;2024-01-15T10:33:26;3.40;99.90
2647;DHT22;1333;50.958;6.770;2024-01-15T10:35:59;3.50;99.90
2647;DHT22;1333;50.958;6.770;2024-01-15T10:38:25;3.40;99.90
2647;DHT22;1333;50.958;6.770;2024-01-15T10:40:55;3.30;99.90
2647;DHT22;1333;50.958;6.770;2024-01-15T10:43:22;3.30;99.90
2647;DHT22;1333;50.958;6.770;2024-01-15T10:45:49;3.20;99.90
2647;DHT22;1333;50.958;6.770;2024-01-15T10:48:16;3.20;99.90
2647;DHT22;1333;50.958;6.770;2024-01-15T10:50:47;3.10;99.90
2647;DHT22;1333;50.958;6.770;2024-01-15T10:53:14;3.10;99.90
2647;DHT22;1333;50.958;6.770;2024-01-15T10:55:41;3.10;99.90
2647;DHT22;1333;50.958;6.770;2024-01-15T10:58:08;3.20;99.90
2647;DHT22;1333;50.958;6.770;2024-01-15T11:00:37;3.20;99.90
2647;DHT22;1333;50.958;6.770;2024-01-15T11:03:04;3.20;99.90
2647;DHT22;1333;50.958;6.770;2024-01-15T11:05:41;3.30;99.90
2647;DHT22;1333;50.958;6.770;2024-01-15T11:08:07;3.20;99.90
2647;DHT22;1333;50.958;6.770;2024-01-15T11:13:14;3.30;99.90
2647;DHT22;1333;50.958;6.770;2024-01-15T11:18:22;3.30;99.90
2647;DHT22;1333;50.958;6.770;2024-01-15T11:26:45;3.10;99.90
2647;DHT22;1333;50.958;6.770;2024-01-15T11:29:32;3.20;99.90
2647;DHT22;1333;50.958;6.770;2024-01-15T11:32:09;3.30;99.90
2647;DHT22;1333;50.958;6.770;2024-01-15T11:34:55;3.50;99.90
2647;DHT22;1333;50.958;6.770;2024-01-15T11:37:24;3.50;99.90
2647;DHT22;1333;50.958;6.770;2024-01-15T11:39:54;3.60;99.90
2647;DHT22;1333;50.958;6.770;2024-01-15T11:42:21;3.60;99.90
2647;DHT22;1333;50.958;6.770;2024-01-15T11:44:47;3.50;99.90
2647;DHT22;1333;50.958;6.770;2024-01-15T11:47:13;3.50;99.90
2647;DHT22;1333;50.958;6.770;2024-01-15T11:50:00;3.40;99.90
2647;DHT22;1333;50.958;6.770;2024-01-15T11:52:32;3.50;99.90
2647;DHT22;1333;50.958;6.770;2024-01-15T11:55:01;3.60;99.90
2647;DHT22;1333;50.958;6.770;2024-01-15T11:57:46;3.50;99.90
2647;DHT22;1333;50.958;6.770;2024-01-15T12:00:14;3.50;99.90
2647;DHT22;1333;50.958;6.770;2024-01-15T12:02:45;3.70;99.90
2647;DHT22;1333;50.958;6.770;2024-01-15T12:05:12;3.70;99.90
2647;DHT22;1333;50.958;6.770;2024-01-15T12:07:39;3.70;99.90
2647;DHT22;1333;50.958;6.770;2024-01-15T12:10:11;3.90;99.90
2647;DHT22;1333;50.958;6.770;2024-01-15T12:12:59;4.30;99.90
2647;DHT22;1333;50.958;6.770;2024-01-15T12:15:29;5.30;99.90
2647;DHT22;1333;50.958;6.770;2024-01-15T12:17:56;5.30;99.90
2647;DHT22;1333;50.958;6.770;2024-01-15T12:20:25;5.20;99.90
2647;DHT22;1333;50.958;6.770;2024-01-15T12:22:51;5.60;99.90
2647;DHT22;1333;50.958;6.770;2024-01-15T12:25:16;5.90;99.90
2647;DHT22;1333;50.958;6.770;2024-01-15T12:27:42;5.90;99.90
2647;DHT22;1333;50.958;6.770;2024-01-15T12:30:13;5.70;99.90
2647;DHT22;1333;50.958;6.770;2024-01-15T12:32:42;5.30;99.90
2647;DHT22;1333;50.958;6.770;2024-01-15T12:35:09;5.10;99.90
2647;DHT22;1333;50.958;6.770;2024-01-15T12:37:36;5.00;99.90
2647;DHT22;1333;50.958;6.770;2024-01-15T12:40:05;4.90;99.90
2647;DHT22;1333;50.958;6.770;2024-01-15T12:42:35;4.90;99.90
2647;DHT22;1333;50.958;6.770;2024-01-15T12:45:02;4.80;99.90
2647;DHT22;1333;50.958;6.770;2024-01-15T12:47:30;4.80;99.90
2647;DHT22;1333;50.958;6.770;2024-01-15T12:49:56;4.90;99.90
2647;DHT22;1333;50.958;6.770;2024-01-15T12:52:22;4.90;99.90
2647;DHT22;1333;50.958;6.770;2024-01-15T12:54:51;5.00;99.90
2647;DHT22;1333;50.958;6.770;2024-01-15T12:57:17;4.90;99.90
2647;DHT22;1333;50.958;6.770;2024-01-15T12:59:43;4.80;99.90
2647;DHT22;1333;50.958;6.770;2024-01-15T13:02:13;4.80;99.90
2647;DHT22;1333;50.958;6.770;2024-01-15T13:04:39;4.80;99.90
2647;DHT22;1333;50.958;6.770;2024-01-15T13:07:06;4.60;99.90
2647;DHT22;1333;50.958;6.770;2024-01-15T13:09:32;4.50;99.90
2647;DHT22;1333;50.958;6.770;2024-01-15T13:11:58;4.60;99.90
2647;DHT22;1333;50.958;6.770;2024-01-15T13:14:24;4.60;99.90
2647;DHT22;1333;50.958;6.770;2024-01-15T13:16:49;4.70;99.90
2647;DHT22;1333;50.958;6.770;2024-01-15T13:19:15;4.70;99.90
2647;DHT22;1333;50.958;6.770;2024-01-15T13:21:41;4.50;99.90
2647;DHT22;1333;50.958;6.770;2024-01-15T13:24:07;4.50;99.90
2647;DHT22;1333;50.958;6.770;2024-01-15T13:26:33;4.40;99.90
2647;DHT22;1333;50.958;6.770;2024-01-15T13:29:00;4.10;99.90
2647;DHT22;1333;50.958;6.770;2024-01-15T13:31:27;4.20;99.90
2647;DHT22;1333;50.958;6.770;2024-01-15T13:33:52;4.30;99.90
2647;DHT22;1333;50.958;6.770;2024-01-15T13:36:18;4.40;99.90
2647;DHT22;1333;50.958;6.770;2024-01-15T13:38:43;4.50;99.90
2647;DHT22;1333;50.958;6.770;2024-01-15T13:41:09;4.60;99.90
2647;DHT22;1333;50.958;6.770;2024-01-15T13:43:34;4.70;99.90
2647;DHT22;1333;50.958;6.770;2024-01-15T13:46:00;4.70;99.90
2647;DHT22;1333;50.958;6.770;2024-01-15T13:48:30;4.70;99.90
2647;DHT22;1333;50.958;6.770;2024-01-15T13:50:55;4.80;99.90
2647;DHT22;1333;50.958;6.770;2024-01-15T13:53:21;4.90;99.90
2647;DHT22;1333;50.958;6.770;2024-01-15T13:55:46;5.00;99.90
2647;DHT22;1333;50.958;6.770;2024-01-15T13:58:13;5.10;99.90
2647;DHT22;1333;50.958;6.770;2024-01-15T14:00:38;5.10;99.90
2647;DHT22;1333;50.958;6.770;2024-01-15T14:03:04;5.10;99.90
2647;DHT22;1333;50.958;6.770;2024-01-15T14:05:30;5.00;99.90
2647;DHT22;1333;50.958;6.770;2024-01-15T14:07:55;4.90;99.90
2647;DHT22;1333;50.958;6.770;2024-01-15T14:10:21;4.70;99.90
2647;DHT22;1333;50.958;6.770;2024-01-15T14:12:46;4.60;99.90
2647;DHT22;1333;50.958;6.770;2024-01-15T14:15:12;4.50;99.90
2647;DHT22;1333;50.958;6.770;2024-01-15T14:17:38;4.50;99.90
2647;DHT22;1333;50.958;6.770;2024-01-15T14:20:04;4.30;99.90
2647;DHT22;1333;50.958;6.770;2024-01-15T14:22:30;4.30;99.90
2647;DHT22;1333;50.958;6.770;2024-01-15T14:24:56;4.20;99.90
2647;DHT22;1333;50.958;6.770;2024-01-15T14:27:21;4.20;99.90
2647;DHT22;1333;50.958;6.770;2024-01-15T14:29:47;4.00;99.90
2647;DHT22;1333;50.958;6.770;2024-01-15T14:32:12;4.00;99.90
2647;DHT22;1333;50.958;6.770;2024-01-15T14:34:38;3.90;99.90
2647;DHT22;1333;50.958;6.770;2024-01-15T14:37:04;3.80;99.90
2647;DHT22;1333;50.958;6.770;2024-01-15T14:39:29;3.80;99.90
2647;DHT22;1333;50.958;6.770;2024-01-15T14:41:57;3.70;99.90
2647;DHT22;1333;50.958;6.770;2024-01-15T14:44:22;3.70;99.90
2647;DHT22;1333;50.958;6.770;2024-01-15T14:46:48;3.60;99.90
2647;DHT22;1333;50.958;6.770;2024-01-15T14:49:14;3.50;99.90
2647;DHT22;1333;50.958;6.770;2024-01-15T14:51:39;3.50;99.90
2647;DHT22;1333;50.958;6.770;2024-01-15T14:54:05;3.40;99.90
2647;DHT22;1333;50.958;6.770;2024-01-15T14:56:31;3.30;99.90
2647;DHT22;1333;50.958;6.770;2024-01-15T14:58:56;3.30;99.90
2647;DHT22;1333;50.958;6.770;2024-01-15T15:01:22;3.30;99.90
2647;DHT22;1333;50.958;6.770;2024-01-15T15:03:48;3.20;99.90
2647;DHT22;1333;50.958;6.770;2024-01-15T15:06:13;3.20;99.90
2647;DHT22;1333;50.958;6.770;2024-01-15T15:08:39;3.10;99.90
2647;DHT22;1333;50.958;6.770;2024-01-15T15:11:05;3.00;99.90
2647;DHT22;1333;50.958;6.770;2024-01-15T15:13:31;3.00;99.90
2647;DHT22;1333;50.958;6.770;2024-01-15T15:15:57;3.00;99.90
2647;DHT22;1333;50.958;6.770;2024-01-15T15:18:22;3.00;99.90
2647;DHT22;1333;50.958;6.770;2024-01-15T15:20:48;3.00;99.90
2647;DHT22;1333;50.958;6.770;2024-01-15T15:23:15;3.10;99.90
2647;DHT22;1333;50.958;6.770;2024-01-15T15:25:40;3.10;99.90
2647;DHT22;1333;50.958;6.770;2024-01-15T15:28:08;2.90;99.90
2647;DHT22;1333;50.958;6.770;2024-01-15T15:30:34;2.80;99.90
2647;DHT22;1333;50.958;6.770;2024-01-15T15:32:59;2.80;99.90
2647;DHT22;1333;50.958;6.770;2024-01-15T15:35:25;2.70;99.90
2647;DHT22;1333;50.958;6.770;2024-01-15T15:37:50;2.60;99.90
2647;DHT22;1333;50.958;6.770;2024-01-15T15:40:16;2.60;99.90
2647;DHT22;1333;50.958;6.770;2024-01-15T15:42:42;2.60;99.90
2647;DHT22;1333;50.958;6.770;2024-01-15T15:45:08;2.60;99.90
2647;DHT22;1333;50.958;6.770;2024-01-15T15:47:35;2.60;99.90
2647;DHT22;1333;50.958;6.770;2024-01-15T15:50:01;2.70;99.90
2647;DHT22;1333;50.958;6.770;2024-01-15T15:52:26;2.70;99.90
2647;DHT22;1333;50.958;6.770;2024-01-15T15:54:52;2.70;99.90
2647;DHT22;1333;50.958;6.770;2024-01-15T15:57:17;2.70;99.90
2647;DHT22;1333;50.958;6.770;2024-01-15T15:59:43;2.70;99.90
2647;DHT22;1333;50.958;6.770;2024-01-15T16:02:08;2.70;99.90
2647;DHT22;1333;50.958;6.770;2024-01-15T16:04:34;2.60;99.90
2647;DHT22;1333;50.958;6.770;2024-01-15T16:06:59;2.60;99.90
2647;DHT22;1333;50.958;6.770;2024-01-15T16:09:26;2.60;99.90
2647;DHT22;1333;50.958;6.770;2024-01-15T16:11:51;2.60;99.90
2647;DHT22;1333;50.958;6.770;2024-01-15T16:14:17;2.60;99.90
2647;DHT22;1333;50.958;6.770;2024-01-15T16:16:44;2.70;99.90
2647;DHT22;1333;50.958;6.770;2024-01-15T16:19:10;2.70;99.90
2647;DHT22;1333;50.958;6.770;2024-01-15T16:21:35;2.70;99.90